Terminal Aerodrome Forecast
Issued by NWS Grand Forks, ND

Home | Current Version | Previous Version | Text Only | Print | Product List | Glossary On
Versions: 1 2 3 4 5 6 7 8 9 10 11 12 13 14 15
000
FTUS43 KFGF 231700
TAFFAR
TAF
KFAR 231731Z 2318/2418 26012KT P6SM BKN040
     FM232000 28015G22KT P6SM BKN035
     FM240000 32020G28KT P6SM BKN020
     FM240300 34028G32KT 4SM -SN BKN015
     FM241200 34028G35KT P6SM BKN025=

USA.gov is the U.S. government's official web portal to all federal, state and local government web resources and services.